ETSBCYYR

Guest
Details From ETSB - Buchel
To CYYR - Goose Bay
Flight Number -
Tags Decoded
Created
Modified
Stats Distance 2,434 nm / 4,508 km
Max Altitude 0 ft / 0 m
Waypoints 5
Social Downloads 0
Likes 0
Share VATSIM

Download

Looking for another format? Having issues loading an existing format? Contact us
Advertisement - Login to hide

Notes

Decoded

Route

ETSB ADENU NOSPA NTM CYYR

ID Type Via Altitude Latitude Longitude Leg Dist Tot Dist Heading (true) Name
O ETSB APT - 0 ft / 0 m 50.16397˚ 7.05471˚ - 0 nm - -
ADENU FIX - 0 ft / 0 m 50.02555˚ 6.90833˚ 10 nm 10 nm 214° / 214° -
NOSPA FIX - 0 ft / 0 m 50.02056˚ 6.71139˚ 7 nm 17 nm 268° / 268° -
NTM VOR - 0 ft / 0 m 50.01586˚ 6.53179˚ 6 nm 24 nm 268° / 268° NATTENHEIM VORTAC
O CYYR APT - 0 ft / 0 m 53.33389˚ -60.43639˚ 2409 nm 2433 nm 301° / 247° -

Altitude Profile

Advertisement - Login to hide

Weather


0- 5 10 15 20 25 30 35+ Temperature / ° C

Clouds and Precipitation
Forecast for 2018-05-25 06:00 UTC. Updated 9 minutes ago

Ground ~20,000 ft ~40,000 ft Winds

ETSB

Details ICAO ETSB
Name BUCHEL
Region Germany - Military
Timezone Europe/Berlin (UTC+2.0)
Stats Elevation 1,568 ft / 478 m (AMSL)
Location 50.173808° 7.063321°
Runways 1
Magnetic Variation 1.979° E

METAR

ETSB 250420Z 16002KT 0100 FG VV001 14/13 Q1018 RED RED

Decode

TAF

Not found

Departure Runways

ID Width Length Bearing (true) Bearing (mag) Surface Threshold Offset Overrun Length
03 148 ft / 45 m 8,232 ft / 2,509 m 29.26° 27.28° Asphalt 0 ft / 0 m 902 ft / 275 m
21 148 ft / 45 m 8,232 ft / 2,509 m 209.28° 207.30° Asphalt 0 ft / 0 m 899 ft / 274 m

CYYR

Details ICAO CYYR (YYR)
Name Goose Bay
Region Canada
Timezone America/Goose_Bay (UTC-3.0)
Stats Elevation 160 ft / 49 m (AMSL)
Location 53.318820° -60.423890°
Runways 2
Magnetic Variation 20.868° W

METAR

CYYR 250500Z 00000KT 15SM SKC M03/M09 A2984 RMK SLP110

Decode

TAF

TAF CYYR 242330Z 2500/2524 07005KT P6SM FEW050 BKN110 FM250400 07005KT P6SM BKN050 OVC100 TEMPO 2504/2514 P6SM -SHSN OVC050 FM251400 10008KT P6SM SCT015 OVC030 TEMPO 2514/2518 4SM -RASN BR OVC015 FM251800 10008KT 5SM -SHRA BR SCT006 OVC012 RMK NXT FCST BY 250600Z

Decode

Destination Runways

ID Width Length Bearing (true) Bearing (mag) Surface Threshold Offset Overrun Length
08 209 ft / 64 m 11,055 ft / 3,369 m 54.70° 75.57° Asphalt 0 ft / 0 m 1,000 ft / 305 m
16 200 ft / 61 m 9,515 ft / 2,900 m 132.96° 153.83° Asphalt 0 ft / 0 m 0 ft / 0 m
26 209 ft / 64 m 11,055 ft / 3,369 m 234.73° 255.60° Asphalt 0 ft / 0 m 1,000 ft / 305 m
34 200 ft / 61 m 9,515 ft / 2,900 m 312.99° 333.86° Asphalt 0 ft / 0 m 500 ft / 152 m

Popular Alternatives